sensor_id;sensor_type;location;lat;lon;timestamp;temperature;humidity
20610;DHT22;10463;52.378;9.688;2024-03-29T00:00:59;22.60;22.60
20610;DHT22;10463;52.378;9.688;2024-03-29T00:03:26;22.60;22.30
20610;DHT22;10463;52.378;9.688;2024-03-29T00:05:53;22.60;22.30
20610;DHT22;10463;52.378;9.688;2024-03-29T00:08:19;22.60;22.30
20610;DHT22;10463;52.378;9.688;2024-03-29T00:10:47;22.60;22.30
20610;DHT22;10463;52.378;9.688;2024-03-29T00:13:13;22.60;22.30
20610;DHT22;10463;52.378;9.688;2024-03-29T00:15:40;22.60;22.30
20610;DHT22;10463;52.378;9.688;2024-03-29T00:18:06;22.60;22.30
20610;DHT22;10463;52.378;9.688;2024-03-29T00:20:32;22.60;22.30
20610;DHT22;10463;52.378;9.688;2024-03-29T00:23:00;22.60;22.30
20610;DHT22;10463;52.378;9.688;2024-03-29T00:25:26;22.50;22.20
20610;DHT22;10463;52.378;9.688;2024-03-29T00:27:53;22.50;22.20
20610;DHT22;10463;52.378;9.688;2024-03-29T00:30:19;22.60;22.30
20610;DHT22;10463;52.378;9.688;2024-03-29T00:32:45;22.50;22.20
20610;DHT22;10463;52.378;9.688;2024-03-29T00:35:11;22.50;22.70
20610;DHT22;10463;52.378;9.688;2024-03-29T00:37:37;22.50;22.20
20610;DHT22;10463;52.378;9.688;2024-03-29T00:40:06;22.50;22.20
20610;DHT22;10463;52.378;9.688;2024-03-29T00:42:32;22.50;22.20
20610;DHT22;10463;52.378;9.688;2024-03-29T00:44:58;22.50;22.20
20610;DHT22;10463;52.378;9.688;2024-03-29T00:47:25;22.50;22.20
20610;DHT22;10463;52.378;9.688;2024-03-29T00:49:51;22.50;22.20
20610;DHT22;10463;52.378;9.688;2024-03-29T00:52:18;22.50;22.20
20610;DHT22;10463;52.378;9.688;2024-03-29T00:54:44;22.50;22.20
20610;DHT22;10463;52.378;9.688;2024-03-29T00:57:12;22.50;22.20
20610;DHT22;10463;52.378;9.688;2024-03-29T00:59:40;22.50;22.20
20610;DHT22;10463;52.378;9.688;2024-03-29T01:02:08;22.50;22.20
20610;DHT22;10463;52.378;9.688;2024-03-29T01:04:34;22.50;22.20
20610;DHT22;10463;52.378;9.688;2024-03-29T01:07:00;22.50;22.20
20610;DHT22;10463;52.378;9.688;2024-03-29T01:09:27;22.50;22.20
20610;DHT22;10463;52.378;9.688;2024-03-29T01:11:53;22.40;22.20
20610;DHT22;10463;52.378;9.688;2024-03-29T01:14:21;22.40;22.20
20610;DHT22;10463;52.378;9.688;2024-03-29T01:16:47;22.40;22.20
20610;DHT22;10463;52.378;9.688;2024-03-29T01:19:13;22.40;22.20
20610;DHT22;10463;52.378;9.688;2024-03-29T01:21:39;22.50;22.20
20610;DHT22;10463;52.378;9.688;2024-03-29T01:24:05;22.50;22.20
20610;DHT22;10463;52.378;9.688;2024-03-29T01:26:32;22.40;22.10
20610;DHT22;10463;52.378;9.688;2024-03-29T01:28:58;22.40;22.20
20610;DHT22;10463;52.378;9.688;2024-03-29T01:31:25;22.40;22.10
20610;DHT22;10463;52.378;9.688;2024-03-29T01:33:52;22.40;22.20
20610;DHT22;10463;52.378;9.688;2024-03-29T01:36:18;22.40;22.10
20610;DHT22;10463;52.378;9.688;2024-03-29T01:38:44;22.40;22.10
20610;DHT22;10463;52.378;9.688;2024-03-29T01:41:14;22.40;22.10
20610;DHT22;10463;52.378;9.688;2024-03-29T01:43:41;22.40;22.20
20610;DHT22;10463;52.378;9.688;2024-03-29T01:46:07;22.40;22.20
20610;DHT22;10463;52.378;9.688;2024-03-29T01:48:35;22.40;22.10
20610;DHT22;10463;52.378;9.688;2024-03-29T01:51:02;22.30;22.10
20610;DHT22;10463;52.378;9.688;2024-03-29T01:53:29;22.40;22.20
20610;DHT22;10463;52.378;9.688;2024-03-29T01:55:56;22.30;22.10
20610;DHT22;10463;52.378;9.688;2024-03-29T01:58:23;22.30;22.10
20610;DHT22;10463;52.378;9.688;2024-03-29T02:00:52;22.30;22.10
20610;DHT22;10463;52.378;9.688;2024-03-29T02:03:20;22.30;22.10
20610;DHT22;10463;52.378;9.688;2024-03-29T02:05:48;22.30;22.10
20610;DHT22;10463;52.378;9.688;2024-03-29T02:08:15;22.30;22.10
20610;DHT22;10463;52.378;9.688;2024-03-29T02:10:42;22.30;22.10
20610;DHT22;10463;52.378;9.688;2024-03-29T02:13:09;22.30;22.00
20610;DHT22;10463;52.378;9.688;2024-03-29T02:15:35;22.30;22.00
20610;DHT22;10463;52.378;9.688;2024-03-29T02:18:01;22.30;22.00
20610;DHT22;10463;52.378;9.688;2024-03-29T02:20:27;22.30;22.00
20610;DHT22;10463;52.378;9.688;2024-03-29T02:23:02;22.30;22.00
20610;DHT22;10463;52.378;9.688;2024-03-29T02:25:31;22.30;22.00
20610;DHT22;10463;52.378;9.688;2024-03-29T02:27:58;22.30;22.00
20610;DHT22;10463;52.378;9.688;2024-03-29T02:30:25;22.30;22.00
20610;DHT22;10463;52.378;9.688;2024-03-29T02:32:52;22.30;22.00
20610;DHT22;10463;52.378;9.688;2024-03-29T02:35:18;22.30;21.90
20610;DHT22;10463;52.378;9.688;2024-03-29T02:37:44;22.30;21.90
20610;DHT22;10463;52.378;9.688;2024-03-29T02:40:12;22.30;21.90
20610;DHT22;10463;52.378;9.688;2024-03-29T02:42:39;22.30;21.90
20610;DHT22;10463;52.378;9.688;2024-03-29T02:45:07;22.20;21.80
20610;DHT22;10463;52.378;9.688;2024-03-29T02:47:33;22.20;21.80
20610;DHT22;10463;52.378;9.688;2024-03-29T02:49:59;22.30;21.90
20610;DHT22;10463;52.378;9.688;2024-03-29T02:52:26;22.20;21.80
20610;DHT22;10463;52.378;9.688;2024-03-29T02:54:52;22.20;21.90
20610;DHT22;10463;52.378;9.688;2024-03-29T02:57:18;22.20;21.80
20610;DHT22;10463;52.378;9.688;2024-03-29T02:59:46;22.20;21.90
20610;DHT22;10463;52.378;9.688;2024-03-29T03:02:12;22.20;21.90
20610;DHT22;10463;52.378;9.688;2024-03-29T03:04:38;22.20;21.90
20610;DHT22;10463;52.378;9.688;2024-03-29T03:07:04;22.20;21.90
20610;DHT22;10463;52.378;9.688;2024-03-29T03:09:49;22.20;21.90
20610;DHT22;10463;52.378;9.688;2024-03-29T03:12:34;22.20;21.80
20610;DHT22;10463;52.378;9.688;2024-03-29T03:15:01;22.20;21.90
20610;DHT22;10463;52.378;9.688;2024-03-29T03:17:28;22.20;21.90
20610;DHT22;10463;52.378;9.688;2024-03-29T03:19:54;22.20;21.90
20610;DHT22;10463;52.378;9.688;2024-03-29T03:22:21;22.20;21.90
20610;DHT22;10463;52.378;9.688;2024-03-29T03:24:47;22.20;21.90
20610;DHT22;10463;52.378;9.688;2024-03-29T03:27:13;22.20;22.00
20610;DHT22;10463;52.378;9.688;2024-03-29T03:29:39;22.20;22.50
20610;DHT22;10463;52.378;9.688;2024-03-29T03:32:07;22.20;21.90
20610;DHT22;10463;52.378;9.688;2024-03-29T03:34:34;22.20;21.90
20610;DHT22;10463;52.378;9.688;2024-03-29T03:37:00;22.20;21.90
20610;DHT22;10463;52.378;9.688;2024-03-29T03:39:26;22.20;21.90
20610;DHT22;10463;52.378;9.688;2024-03-29T03:41:52;22.20;21.90
20610;DHT22;10463;52.378;9.688;2024-03-29T03:44:18;22.20;21.90
20610;DHT22;10463;52.378;9.688;2024-03-29T03:46:45;22.20;21.90
20610;DHT22;10463;52.378;9.688;2024-03-29T03:49:12;22.20;21.90
20610;DHT22;10463;52.378;9.688;2024-03-29T03:51:38;22.20;21.90
20610;DHT22;10463;52.378;9.688;2024-03-29T03:54:05;22.20;21.80
20610;DHT22;10463;52.378;9.688;2024-03-29T03:56:31;22.20;21.90
20610;DHT22;10463;52.378;9.688;2024-03-29T03:58:57;22.10;21.80
20610;DHT22;10463;52.378;9.688;2024-03-29T04:01:24;22.10;21.70
20610;DHT22;10463;52.378;9.688;2024-03-29T04:03:50;22.10;21.70
20610;DHT22;10463;52.378;9.688;2024-03-29T04:06:17;22.10;21.70
20610;DHT22;10463;52.378;9.688;2024-03-29T04:08:44;22.10;21.70
20610;DHT22;10463;52.378;9.688;2024-03-29T04:11:10;22.10;21.70
20610;DHT22;10463;52.378;9.688;2024-03-29T04:13:36;22.10;21.70
20610;DHT22;10463;52.378;9.688;2024-03-29T04:16:06;22.10;21.70
20610;DHT22;10463;52.378;9.688;2024-03-29T04:18:33;22.10;21.70
20610;DHT22;10463;52.378;9.688;2024-03-29T04:20:59;22.10;21.70
20610;DHT22;10463;52.378;9.688;2024-03-29T04:23:28;22.10;22.20
20610;DHT22;10463;52.378;9.688;2024-03-29T04:25:54;22.10;21.80
20610;DHT22;10463;52.378;9.688;2024-03-29T04:28:21;22.10;21.70
20610;DHT22;10463;52.378;9.688;2024-03-29T04:30:54;22.10;21.70
20610;DHT22;10463;52.378;9.688;2024-03-29T04:33:21;22.00;21.60
20610;DHT22;10463;52.378;9.688;2024-03-29T04:35:54;22.00;21.50
20610;DHT22;10463;52.378;9.688;2024-03-29T04:38:20;22.00;21.60
20610;DHT22;10463;52.378;9.688;2024-03-29T04:40:48;22.00;21.60
20610;DHT22;10463;52.378;9.688;2024-03-29T04:43:15;22.00;21.60
20610;DHT22;10463;52.378;9.688;2024-03-29T04:45:41;22.00;21.60
20610;DHT22;10463;52.378;9.688;2024-03-29T04:48:07;22.10;21.70
20610;DHT22;10463;52.378;9.688;2024-03-29T04:50:34;22.00;21.70
20610;DHT22;10463;52.378;9.688;2024-03-29T04:53:00;22.00;21.60
20610;DHT22;10463;52.378;9.688;2024-03-29T04:55:26;22.00;21.60
20610;DHT22;10463;52.378;9.688;2024-03-29T04:57:54;22.00;21.60
20610;DHT22;10463;52.378;9.688;2024-03-29T05:00:20;22.00;21.70
20610;DHT22;10463;52.378;9.688;2024-03-29T05:02:46;22.00;21.70
20610;DHT22;10463;52.378;9.688;2024-03-29T05:05:13;22.00;21.70
20610;DHT22;10463;52.378;9.688;2024-03-29T05:07:39;22.00;21.70
20610;DHT22;10463;52.378;9.688;2024-03-29T05:10:06;22.00;21.70
20610;DHT22;10463;52.378;9.688;2024-03-29T05:12:33;22.00;21.70
20610;DHT22;10463;52.378;9.688;2024-03-29T05:15:01;22.00;21.70
20610;DHT22;10463;52.378;9.688;2024-03-29T05:17:27;22.00;21.70
20610;DHT22;10463;52.378;9.688;2024-03-29T05:19:54;22.00;21.70
20610;DHT22;10463;52.378;9.688;2024-03-29T05:22:20;22.00;21.70
20610;DHT22;10463;52.378;9.688;2024-03-29T05:24:46;22.00;21.70
20610;DHT22;10463;52.378;9.688;2024-03-29T05:27:13;22.00;21.70
20610;DHT22;10463;52.378;9.688;2024-03-29T05:29:39;22.00;21.70
20610;DHT22;10463;52.378;9.688;2024-03-29T05:32:07;22.00;21.70
20610;DHT22;10463;52.378;9.688;2024-03-29T05:34:33;22.00;21.70
20610;DHT22;10463;52.378;9.688;2024-03-29T05:36:59;22.00;21.70
20610;DHT22;10463;52.378;9.688;2024-03-29T05:39:26;22.00;21.70
20610;DHT22;10463;52.378;9.688;2024-03-29T05:41:52;22.00;21.70
20610;DHT22;10463;52.378;9.688;2024-03-29T05:44:18;22.00;21.70
20610;DHT22;10463;52.378;9.688;2024-03-29T05:46:44;21.90;21.70
20610;DHT22;10463;52.378;9.688;2024-03-29T05:49:12;21.90;21.60
20610;DHT22;10463;52.378;9.688;2024-03-29T05:51:38;21.90;21.60
20610;DHT22;10463;52.378;9.688;2024-03-29T05:54:05;21.90;21.60
20610;DHT22;10463;52.378;9.688;2024-03-29T05:56:31;22.00;21.70
20610;DHT22;10463;52.378;9.688;2024-03-29T05:58:57;21.90;21.70
20610;DHT22;10463;52.378;9.688;2024-03-29T06:01:23;21.90;21.70
20610;DHT22;10463;52.378;9.688;2024-03-29T06:03:50;22.00;21.80
20610;DHT22;10463;52.378;9.688;2024-03-29T06:06:20;21.90;21.70
20610;DHT22;10463;52.378;9.688;2024-03-29T06:08:50;21.90;21.80
20610;DHT22;10463;52.378;9.688;2024-03-29T06:11:16;21.90;21.80
20610;DHT22;10463;52.378;9.688;2024-03-29T06:13:42;21.90;21.80
20610;DHT22;10463;52.378;9.688;2024-03-29T06:16:21;21.90;21.80
20610;DHT22;10463;52.378;9.688;2024-03-29T06:19:06;21.90;21.80
20610;DHT22;10463;52.378;9.688;2024-03-29T06:21:33;21.90;21.90
20610;DHT22;10463;52.378;9.688;2024-03-29T06:24:05;21.90;21.90
20610;DHT22;10463;52.378;9.688;2024-03-29T06:26:32;21.90;21.90
20610;DHT22;10463;52.378;9.688;2024-03-29T06:28:58;21.90;21.90
20610;DHT22;10463;52.378;9.688;2024-03-29T06:31:24;21.90;21.90
20610;DHT22;10463;52.378;9.688;2024-03-29T06:33:51;21.90;21.90
20610;DHT22;10463;52.378;9.688;2024-03-29T06:36:17;21.90;21.90
20610;DHT22;10463;52.378;9.688;2024-03-29T06:38:44;21.90;21.90
20610;DHT22;10463;52.378;9.688;2024-03-29T06:41:10;21.90;21.90
20610;DHT22;10463;52.378;9.688;2024-03-29T06:43:37;21.90;22.00
20610;DHT22;10463;52.378;9.688;2024-03-29T06:46:03;21.90;22.00
20610;DHT22;10463;52.378;9.688;2024-03-29T06:48:29;21.90;22.00
20610;DHT22;10463;52.378;9.688;2024-03-29T06:50:59;21.90;22.00
20610;DHT22;10463;52.378;9.688;2024-03-29T06:53:25;21.90;22.00
20610;DHT22;10463;52.378;9.688;2024-03-29T06:55:55;21.90;22.00
20610;DHT22;10463;52.378;9.688;2024-03-29T06:58:22;21.90;22.00
20610;DHT22;10463;52.378;9.688;2024-03-29T07:00:48;21.90;22.10
20610;DHT22;10463;52.378;9.688;2024-03-29T07:03:15;21.90;22.10
20610;DHT22;10463;52.378;9.688;2024-03-29T07:05:41;21.90;22.10
20610;DHT22;10463;52.378;9.688;2024-03-29T07:08:07;21.90;22.10
20610;DHT22;10463;52.378;9.688;2024-03-29T07:10:33;21.90;22.10
20610;DHT22;10463;52.378;9.688;2024-03-29T07:13:01;22.00;22.20
20610;DHT22;10463;52.378;9.688;2024-03-29T07:15:27;21.90;22.10
20610;DHT22;10463;52.378;9.688;2024-03-29T07:17:53;21.90;22.20
20610;DHT22;10463;52.378;9.688;2024-03-29T07:20:42;21.90;22.20
20610;DHT22;10463;52.378;9.688;2024-03-29T07:23:08;21.90;22.20
20610;DHT22;10463;52.378;9.688;2024-03-29T07:25:34;21.90;22.20
20610;DHT22;10463;52.378;9.688;2024-03-29T07:28:02;21.90;22.20
20610;DHT22;10463;52.378;9.688;2024-03-29T07:30:28;21.90;22.20
20610;DHT22;10463;52.378;9.688;2024-03-29T07:32:55;21.90;22.20
20610;DHT22;10463;52.378;9.688;2024-03-29T07:35:21;21.90;22.30
20610;DHT22;10463;52.378;9.688;2024-03-29T07:37:47;21.90;22.30
20610;DHT22;10463;52.378;9.688;2024-03-29T07:40:16;21.90;22.30
20610;DHT22;10463;52.378;9.688;2024-03-29T07:42:42;21.90;22.30
20610;DHT22;10463;52.378;9.688;2024-03-29T07:45:10;21.90;22.30
20610;DHT22;10463;52.378;9.688;2024-03-29T07:47:36;21.90;22.30
20610;DHT22;10463;52.378;9.688;2024-03-29T07:50:03;21.90;22.30
20610;DHT22;10463;52.378;9.688;2024-03-29T07:52:29;21.90;22.30
20610;DHT22;10463;52.378;9.688;2024-03-29T07:54:56;21.90;22.40
20610;DHT22;10463;52.378;9.688;2024-03-29T07:57:22;22.00;22.40
20610;DHT22;10463;52.378;9.688;2024-03-29T07:59:50;21.90;22.40
20610;DHT22;10463;52.378;9.688;2024-03-29T08:02:18;22.00;22.50
20610;DHT22;10463;52.378;9.688;2024-03-29T08:04:44;21.90;22.40
20610;DHT22;10463;52.378;9.688;2024-03-29T08:07:11;21.90;22.40
20610;DHT22;10463;52.378;9.688;2024-03-29T08:09:38;21.90;22.40
20610;DHT22;10463;52.378;9.688;2024-03-29T08:12:07;21.90;22.40
20610;DHT22;10463;52.378;9.688;2024-03-29T08:14:34;21.90;22.50
20610;DHT22;10463;52.378;9.688;2024-03-29T08:17:00;21.90;22.50
20610;DHT22;10463;52.378;9.688;2024-03-29T08:19:31;21.90;22.50
20610;DHT22;10463;52.378;9.688;2024-03-29T08:21:58;21.90;22.50
20610;DHT22;10463;52.378;9.688;2024-03-29T08:24:26;22.00;22.60
20610;DHT22;10463;52.378;9.688;2024-03-29T08:26:53;22.00;22.60
20610;DHT22;10463;52.378;9.688;2024-03-29T08:29:19;22.00;22.60
20610;DHT22;10463;52.378;9.688;2024-03-29T08:31:45;22.00;22.60
20610;DHT22;10463;52.378;9.688;2024-03-29T08:34:11;22.00;22.60
20610;DHT22;10463;52.378;9.688;2024-03-29T08:36:40;22.00;22.70
20610;DHT22;10463;52.378;9.688;2024-03-29T08:39:06;22.00;22.70
20610;DHT22;10463;52.378;9.688;2024-03-29T08:41:32;22.00;22.70
20610;DHT22;10463;52.378;9.688;2024-03-29T08:43:59;22.00;23.20
20610;DHT22;10463;52.378;9.688;2024-03-29T08:46:25;22.00;22.70
20610;DHT22;10463;52.378;9.688;2024-03-29T08:48:51;22.00;22.70
20610;DHT22;10463;52.378;9.688;2024-03-29T08:51:18;22.00;22.80
20610;DHT22;10463;52.378;9.688;2024-03-29T08:53:47;22.00;22.80
20610;DHT22;10463;52.378;9.688;2024-03-29T08:56:14;22.00;22.80
20610;DHT22;10463;52.378;9.688;2024-03-29T08:58:41;22.00;22.80
20610;DHT22;10463;52.378;9.688;2024-03-29T09:01:08;22.00;22.80
20610;DHT22;10463;52.378;9.688;2024-03-29T09:03:35;22.00;22.90
20610;DHT22;10463;52.378;9.688;2024-03-29T09:06:01;22.00;22.90
20610;DHT22;10463;52.378;9.688;2024-03-29T09:08:28;22.00;23.10
20610;DHT22;10463;52.378;9.688;2024-03-29T09:10:56;22.00;22.90
20610;DHT22;10463;52.378;9.688;2024-03-29T09:13:22;22.00;23.50
20610;DHT22;10463;52.378;9.688;2024-03-29T09:15:48;22.00;22.90
20610;DHT22;10463;52.378;9.688;2024-03-29T09:18:15;22.00;22.90
20610;DHT22;10463;52.378;9.688;2024-03-29T09:20:59;22.00;23.00
20610;DHT22;10463;52.378;9.688;2024-03-29T09:23:25;22.00;23.00
20610;DHT22;10463;52.378;9.688;2024-03-29T09:25:53;22.00;23.00
20610;DHT22;10463;52.378;9.688;2024-03-29T09:28:22;22.00;23.00
20610;DHT22;10463;52.378;9.688;2024-03-29T09:30:49;22.00;23.10
20610;DHT22;10463;52.378;9.688;2024-03-29T09:33:15;22.00;23.00
20610;DHT22;10463;52.378;9.688;2024-03-29T09:35:42;22.00;23.10
20610;DHT22;10463;52.378;9.688;2024-03-29T09:38:08;22.00;23.10
20610;DHT22;10463;52.378;9.688;2024-03-29T09:40:34;22.00;23.10
20610;DHT22;10463;52.378;9.688;2024-03-29T09:43:01;22.00;23.10
20610;DHT22;10463;52.378;9.688;2024-03-29T09:45:35;22.00;23.10
20610;DHT22;10463;52.378;9.688;2024-03-29T09:48:04;22.00;23.20
20610;DHT22;10463;52.378;9.688;2024-03-29T09:50:31;22.00;23.20
20610;DHT22;10463;52.378;9.688;2024-03-29T09:52:58;22.00;23.20
20610;DHT22;10463;52.378;9.688;2024-03-29T09:55:25;22.00;23.20
20610;DHT22;10463;52.378;9.688;2024-03-29T09:57:51;22.00;23.30
20610;DHT22;10463;52.378;9.688;2024-03-29T10:00:18;22.00;23.30
20610;DHT22;10463;52.378;9.688;2024-03-29T10:02:46;22.00;23.30
20610;DHT22;10463;52.378;9.688;2024-03-29T10:05:15;22.00;23.30
20610;DHT22;10463;52.378;9.688;2024-03-29T10:07:43;22.00;23.30
20610;DHT22;10463;52.378;9.688;2024-03-29T10:10:10;22.00;23.40
20610;DHT22;10463;52.378;9.688;2024-03-29T10:12:40;22.00;23.40
20610;DHT22;10463;52.378;9.688;2024-03-29T10:15:07;22.00;23.40
20610;DHT22;10463;52.378;9.688;2024-03-29T10:17:55;22.00;23.40
20610;DHT22;10463;52.378;9.688;2024-03-29T10:20:21;22.10;23.50
20610;DHT22;10463;52.378;9.688;2024-03-29T10:22:49;22.00;23.40
20610;DHT22;10463;52.378;9.688;2024-03-29T10:25:15;22.10;23.50
20610;DHT22;10463;52.378;9.688;2024-03-29T10:27:42;22.00;23.40
20610;DHT22;10463;52.378;9.688;2024-03-29T10:30:10;22.10;23.50
20610;DHT22;10463;52.378;9.688;2024-03-29T10:32:38;22.10;23.50
20610;DHT22;10463;52.378;9.688;2024-03-29T10:35:09;22.10;23.50
20610;DHT22;10463;52.378;9.688;2024-03-29T10:37:36;22.10;23.50
20610;DHT22;10463;52.378;9.688;2024-03-29T10:40:08;22.10;23.50
20610;DHT22;10463;52.378;9.688;2024-03-29T10:42:37;22.10;23.60
20610;DHT22;10463;52.378;9.688;2024-03-29T10:45:06;22.10;23.60
20610;DHT22;10463;52.378;9.688;2024-03-29T10:47:34;22.10;23.60
20610;DHT22;10463;52.378;9.688;2024-03-29T10:50:01;22.10;23.70
20610;DHT22;10463;52.378;9.688;2024-03-29T10:52:30;22.10;23.60
20610;DHT22;10463;52.378;9.688;2024-03-29T10:54:57;22.10;23.70
20610;DHT22;10463;52.378;9.688;2024-03-29T10:57:24;22.10;23.70
20610;DHT22;10463;52.378;9.688;2024-03-29T11:00:01;22.10;23.70
20610;DHT22;10463;52.378;9.688;2024-03-29T11:02:49;22.10;23.70
20610;DHT22;10463;52.378;9.688;2024-03-29T11:05:18;22.10;23.80
20610;DHT22;10463;52.378;9.688;2024-03-29T11:07:48;22.10;23.80
20610;DHT22;10463;52.378;9.688;2024-03-29T11:10:20;22.10;23.80
20610;DHT22;10463;52.378;9.688;2024-03-29T11:12:57;22.10;23.80
20610;DHT22;10463;52.378;9.688;2024-03-29T11:15:29;22.10;23.80
20610;DHT22;10463;52.378;9.688;2024-03-29T11:17:56;22.10;23.80
20610;DHT22;10463;52.378;9.688;2024-03-29T11:20:25;22.10;23.90
20610;DHT22;10463;52.378;9.688;2024-03-29T11:23:04;22.10;23.90
20610;DHT22;10463;52.378;9.688;2024-03-29T11:25:40;22.10;23.90
20610;DHT22;10463;52.378;9.688;2024-03-29T11:28:07;22.10;23.90
20610;DHT22;10463;52.378;9.688;2024-03-29T11:30:41;22.10;23.90
20610;DHT22;10463;52.378;9.688;2024-03-29T11:33:23;22.10;24.00
20610;DHT22;10463;52.378;9.688;2024-03-29T11:35:49;22.10;24.50
20610;DHT22;10463;52.378;9.688;2024-03-29T11:38:18;22.10;24.00
20610;DHT22;10463;52.378;9.688;2024-03-29T11:40:54;22.10;24.00
20610;DHT22;10463;52.378;9.688;2024-03-29T11:43:21;22.10;24.00
20610;DHT22;10463;52.378;9.688;2024-03-29T11:45:49;22.20;24.10
20610;DHT22;10463;52.378;9.688;2024-03-29T11:48:21;22.20;24.10
20610;DHT22;10463;52.378;9.688;2024-03-29T11:50:49;22.10;24.10
20610;DHT22;10463;52.378;9.688;2024-03-29T11:53:15;22.20;24.10
20610;DHT22;10463;52.378;9.688;2024-03-29T11:55:42;22.20;24.10
20610;DHT22;10463;52.378;9.688;2024-03-29T11:58:09;22.20;24.20
20610;DHT22;10463;52.378;9.688;2024-03-29T12:00:35;22.20;24.20
20610;DHT22;10463;52.378;9.688;2024-03-29T12:03:03;22.20;24.20
20610;DHT22;10463;52.378;9.688;2024-03-29T12:05:29;22.20;24.20
20610;DHT22;10463;52.378;9.688;2024-03-29T12:07:56;22.20;24.20
20610;DHT22;10463;52.378;9.688;2024-03-29T12:10:26;22.20;24.20
20610;DHT22;10463;52.378;9.688;2024-03-29T12:12:57;22.20;24.30
20610;DHT22;10463;52.378;9.688;2024-03-29T12:15:24;22.20;24.20
20610;DHT22;10463;52.378;9.688;2024-03-29T12:17:54;22.20;24.20
20610;DHT22;10463;52.378;9.688;2024-03-29T12:20:21;22.20;24.80
20610;DHT22;10463;52.378;9.688;2024-03-29T12:22:47;22.20;24.20
20610;DHT22;10463;52.378;9.688;2024-03-29T12:25:13;22.20;24.20
20610;DHT22;10463;52.378;9.688;2024-03-29T12:27:41;22.20;24.30
20610;DHT22;10463;52.378;9.688;2024-03-29T12:30:11;22.20;24.30
20610;DHT22;10463;52.378;9.688;2024-03-29T12:32:38;22.20;24.30
20610;DHT22;10463;52.378;9.688;2024-03-29T12:35:11;22.20;24.30
20610;DHT22;10463;52.378;9.688;2024-03-29T12:37:37;22.20;24.40
20610;DHT22;10463;52.378;9.688;2024-03-29T12:40:05;22.20;24.40
20610;DHT22;10463;52.378;9.688;2024-03-29T12:42:38;22.20;24.40
20610;DHT22;10463;52.378;9.688;2024-03-29T12:45:06;22.30;24.40
20610;DHT22;10463;52.378;9.688;2024-03-29T12:47:34;22.20;24.40
20610;DHT22;10463;52.378;9.688;2024-03-29T12:50:02;22.20;24.40
20610;DHT22;10463;52.378;9.688;2024-03-29T12:52:37;22.20;24.40
20610;DHT22;10463;52.378;9.688;2024-03-29T12:55:04;22.30;24.50
20610;DHT22;10463;52.378;9.688;2024-03-29T12:57:31;22.30;24.50
20610;DHT22;10463;52.378;9.688;2024-03-29T12:59:57;22.30;24.50
20610;DHT22;10463;52.378;9.688;2024-03-29T13:02:23;22.30;24.60
20610;DHT22;10463;52.378;9.688;2024-03-29T13:04:51;22.30;24.60
20610;DHT22;10463;52.378;9.688;2024-03-29T13:07:17;22.30;24.60
20610;DHT22;10463;52.378;9.688;2024-03-29T13:09:43;22.30;24.60
20610;DHT22;10463;52.378;9.688;2024-03-29T13:12:09;22.30;24.70
20610;DHT22;10463;52.378;9.688;2024-03-29T13:14:35;22.30;24.70
20610;DHT22;10463;52.378;9.688;2024-03-29T13:17:02;22.30;24.70
20610;DHT22;10463;52.378;9.688;2024-03-29T13:19:28;22.30;24.70
20610;DHT22;10463;52.378;9.688;2024-03-29T13:21:57;22.30;24.70
20610;DHT22;10463;52.378;9.688;2024-03-29T13:24:25;22.30;24.70
20610;DHT22;10463;52.378;9.688;2024-03-29T13:26:51;22.30;24.70
20610;DHT22;10463;52.378;9.688;2024-03-29T13:29:17;22.30;24.70
20610;DHT22;10463;52.378;9.688;2024-03-29T13:31:43;22.30;24.70
20610;DHT22;10463;52.378;9.688;2024-03-29T13:34:09;22.30;24.70
20610;DHT22;10463;52.378;9.688;2024-03-29T13:36:38;22.30;24.70
20610;DHT22;10463;52.378;9.688;2024-03-29T13:39:07;22.40;24.80
20610;DHT22;10463;52.378;9.688;2024-03-29T13:41:34;22.40;24.80
20610;DHT22;10463;52.378;9.688;2024-03-29T13:44:04;22.40;24.80
20610;DHT22;10463;52.378;9.688;2024-03-29T13:46:32;22.30;24.80
20610;DHT22;10463;52.378;9.688;2024-03-29T13:48:58;22.40;24.80
20610;DHT22;10463;52.378;9.688;2024-03-29T13:51:25;22.40;24.80
20610;DHT22;10463;52.378;9.688;2024-03-29T13:53:51;22.40;24.90
20610;DHT22;10463;52.378;9.688;2024-03-29T13:56:18;22.40;24.90
20610;DHT22;10463;52.378;9.688;2024-03-29T13:58:44;22.40;24.90
20610;DHT22;10463;52.378;9.688;2024-03-29T14:01:10;22.40;24.90
20610;DHT22;10463;52.378;9.688;2024-03-29T14:03:37;22.40;24.90
20610;DHT22;10463;52.378;9.688;2024-03-29T14:06:03;22.40;24.90
20610;DHT22;10463;52.378;9.688;2024-03-29T14:08:31;22.40;24.90
20610;DHT22;10463;52.378;9.688;2024-03-29T14:10:58;22.40;25.50
20610;DHT22;10463;52.378;9.688;2024-03-29T14:13:25;22.40;24.90
20610;DHT22;10463;52.378;9.688;2024-03-29T14:15:52;22.50;25.00
20610;DHT22;10463;52.378;9.688;2024-03-29T14:18:18;22.50;25.00
20610;DHT22;10463;52.378;9.688;2024-03-29T14:20:44;22.50;25.10
20610;DHT22;10463;52.378;9.688;2024-03-29T14:23:10;22.50;25.10
20610;DHT22;10463;52.378;9.688;2024-03-29T14:25:38;22.50;25.10
20610;DHT22;10463;52.378;9.688;2024-03-29T14:28:06;22.50;25.10
20610;DHT22;10463;52.378;9.688;2024-03-29T14:30:34;22.50;25.10
20610;DHT22;10463;52.378;9.688;2024-03-29T14:33:00;22.50;25.10
20610;DHT22;10463;52.378;9.688;2024-03-29T14:35:32;22.60;25.70
20610;DHT22;10463;52.378;9.688;2024-03-29T14:37:58;22.60;25.20
20610;DHT22;10463;52.378;9.688;2024-03-29T14:40:25;22.60;25.20
20610;DHT22;10463;52.378;9.688;2024-03-29T14:42:52;22.60;25.20
20610;DHT22;10463;52.378;9.688;2024-03-29T14:45:23;22.60;25.20
20610;DHT22;10463;52.378;9.688;2024-03-29T14:47:51;22.60;25.20
20610;DHT22;10463;52.378;9.688;2024-03-29T14:50:17;22.70;25.20
20610;DHT22;10463;52.378;9.688;2024-03-29T14:52:44;22.70;25.20
20610;DHT22;10463;52.378;9.688;2024-03-29T14:55:10;22.70;25.20
20610;DHT22;10463;52.378;9.688;2024-03-29T14:57:36;22.70;25.20
20610;DHT22;10463;52.378;9.688;2024-03-29T15:00:04;22.70;25.20
20610;DHT22;10463;52.378;9.688;2024-03-29T15:02:30;22.80;25.30
20610;DHT22;10463;52.378;9.688;2024-03-29T15:04:58;22.80;25.30
20610;DHT22;10463;52.378;9.688;2024-03-29T15:07:24;22.80;25.30
20610;DHT22;10463;52.378;9.688;2024-03-29T15:09:51;22.80;25.30
20610;DHT22;10463;52.378;9.688;2024-03-29T15:12:17;22.80;25.30
20610;DHT22;10463;52.378;9.688;2024-03-29T15:14:43;22.90;25.40
20610;DHT22;10463;52.378;9.688;2024-03-29T15:17:10;22.90;25.40
20610;DHT22;10463;52.378;9.688;2024-03-29T15:19:36;22.90;25.40
20610;DHT22;10463;52.378;9.688;2024-03-29T15:22:03;22.90;25.30
20610;DHT22;10463;52.378;9.688;2024-03-29T15:24:30;23.00;25.40
20610;DHT22;10463;52.378;9.688;2024-03-29T15:26:56;23.00;25.40
20610;DHT22;10463;52.378;9.688;2024-03-29T15:29:25;23.00;25.40
20610;DHT22;10463;52.378;9.688;2024-03-29T15:31:51;23.00;25.40